Time;durP1;ratioP1;P1;durP2;ratioP2;P2;SDS_P1;SDS_P2;PMS_P1;PMS_P2;Temp;Humidity;BMP_temperature;BMP_pressure;BME280_temperature;BME280_humidity;BME280_pressure;Samples;Min_cycle;Max_cycle;Signal;HPM_P1;HPM_P2
2021/10/07 00:01:36;;;;;;;47.40;24.25;;;;;;;4.08;78.05;95349.62;1646564;85;21094;-59
2021/10/07 00:04:04;;;;;;;47.33;23.98;;;;;;;4.01;78.17;95347.48;1647563;86;21571;-59
2021/10/07 00:06:32;;;;;;;43.13;23.20;;;;;;;3.97;78.23;95352.95;1647466;86;20986;-60
2021/10/07 00:08:59;;;;;;;44.75;24.27;;;;;;;3.95;78.29;95351.78;1650464;86;21113;-60
2021/10/07 00:11:26;;;;;;;46.45;23.75;;;;;;;3.93;78.20;95353.55;1638129;86;21014;-60
2021/10/07 00:13:53;;;;;;;43.17;22.20;;;;;;;3.92;78.23;95351.20;1620450;88;21562;-60
2021/10/07 00:16:20;;;;;;;38.17;20.17;;;;;;;3.91;78.26;95359.94;1620215;88;21086;-60
2021/10/07 00:18:49;;;;;;;39.38;23.32;;;;;;;3.88;78.45;95363.44;1626039;87;21369;-60
2021/10/07 00:21:18;;;;;;;50.17;26.85;;;;;;;3.82;78.60;95354.69;1636641;86;20963;-60
2021/10/07 00:24:04;;;;;;;47.13;26.82;;;;;;;3.76;79.09;95366.57;1654279;85;21011;-60
2021/10/07 00:26:18;;;;;;;47.70;24.47;;;;;;;3.76;79.28;95356.25;1672906;85;21542;-59
2021/10/07 00:28:44;;;;;;;48.85;26.10;;;;;;;3.73;79.30;95372.77;1671303;85;21830;-59
2021/10/07 00:31:17;;;;;;;48.65;24.87;;;;;;;3.71;79.42;95367.53;1670239;85;22167;-59
2021/10/07 00:33:55;;;;;;;42.95;22.10;;;;;;;3.66;79.28;95363.84;1670293;85;21055;-60
2021/10/07 00:36:15;;;;;;;50.08;24.67;;;;;;;3.58;79.18;95364.42;1646035;85;21029;-60
2021/10/07 00:41:22;;;;;;;43.13;24.07;;;;;;;3.51;79.70;95368.47;1616341;87;21838;-59
2021/10/07 00:43:49;;;;;;;44.58;24.63;;;;;;;3.52;79.66;95365.19;1626974;87;21061;-60
2021/10/07 00:46:15;;;;;;;55.83;26.73;;;;;;;3.46;79.58;95368.67;1618455;87;21144;-60
2021/10/07 00:48:42;;;;;;;45.15;24.67;;;;;;;3.45;79.57;95370.59;1655013;85;21569;-60
2021/10/07 00:51:09;;;;;;;33.90;17.85;;;;;;;3.44;79.62;95366.92;1667668;85;21502;-60
2021/10/07 00:53:36;;;;;;;29.87;17.73;;;;;;;3.43;79.43;95368.09;1671547;85;21484;-59
2021/10/07 00:56:03;;;;;;;39.55;19.20;;;;;;;3.43;79.19;95366.73;1664762;85;21016;-60
2021/10/07 00:58:31;;;;;;;34.78;18.80;;;;;;;3.43;79.14;95359.92;1665858;85;21114;-60
2021/10/07 01:00:58;;;;;;;40.10;20.52;;;;;;;3.43;79.05;95366.13;1634386;85;21069;-60
2021/10/07 01:03:24;;;;;;;40.52;22.67;;;;;;;3.46;79.14;95367.31;1632105;86;21578;-60
2021/10/07 01:05:51;;;;;;;38.92;21.23;;;;;;;3.50;79.19;95368.28;1631516;86;21886;-60
2021/10/07 01:08:18;;;;;;;52.43;23.35;;;;;;;3.53;79.10;95368.86;1634414;87;21056;-60
2021/10/07 01:10:45;;;;;;;52.15;25.25;;;;;;;3.48;79.16;95369.25;1627848;86;21014;-59
2021/10/07 01:13:13;;;;;;;48.40;24.75;;;;;;;3.47;79.34;95375.66;1618884;87;21590;-60
2021/10/07 01:15:41;;;;;;;54.10;26.00;;;;;;;3.41;79.37;95379.34;1628580;87;21134;-59
2021/10/07 01:18:08;;;;;;;45.78;25.02;;;;;;;3.35;79.40;95383.61;1621164;87;21160;-59
2021/10/07 01:20:37;;;;;;;49.42;26.45;;;;;;;3.31;79.57;95375.23;1641054;87;21058;-59
2021/10/07 01:23:04;;;;;;;41.23;24.35;;;;;;;3.32;79.49;95374.08;1645066;85;20991;-59
2021/10/07 01:25:34;;;;;;;43.73;23.60;;;;;;;3.35;79.49;95383.61;1663074;85;21008;-60
2021/10/07 01:28:00;;;;;;;39.92;19.23;;;;;;;3.38;79.30;95370.59;1667436;85;21082;-60
2021/10/07 01:30:27;;;;;;;40.05;20.95;;;;;;;3.42;79.24;95370.02;1662650;85;21141;-60
2021/10/07 01:32:56;;;;;;;41.75;21.10;;;;;;;3.48;79.08;95372.57;1669817;85;21011;-59
2021/10/07 01:35:23;;;;;;;42.98;20.95;;;;;;;3.50;78.80;95371.59;1657275;85;21077;-61
2021/10/07 01:37:50;;;;;;;41.13;20.02;;;;;;;3.52;78.71;95370.62;1626484;86;21055;-59
2021/10/07 01:40:17;;;;;;;47.58;22.22;;;;;;;3.54;78.41;95372.38;1619650;86;21057;-59
2021/10/07 01:42:44;;;;;;;47.45;26.82;;;;;;;3.53;78.25;95377.62;1623101;87;21151;-59
2021/10/07 01:45:12;;;;;;;38.25;24.02;;;;;;;3.50;78.34;95371.00;1631379;86;21734;-61
2021/10/07 01:47:39;;;;;;;51.33;25.72;;;;;;;3.51;78.33;95372.55;1621881;86;21072;-60
2021/10/07 01:50:09;;;;;;;38.33;21.65;;;;;;;3.53;78.05;95375.66;1615651;88;21099;-59
2021/10/07 01:52:37;;;;;;;39.98;20.88;;;;;;;3.50;78.15;95372.36;1622719;88;21029;-59
2021/10/07 01:55:07;;;;;;;39.38;21.70;;;;;;;3.49;77.96;95374.13;1623783;86;21151;-59
2021/10/07 01:57:34;;;;;;;36.10;20.70;;;;;;;3.45;77.96;95377.99;1616914;87;21073;-60
2021/10/07 02:00:01;;;;;;;27.35;16.57;;;;;;;3.41;78.05;95373.14;1625273;86;21264;-60
2021/10/07 02:02:30;;;;;;;21.02;13.30;;;;;;;3.31;78.18;95382.03;1646731;86;21585;-60
2021/10/07 02:04:56;;;;;;;18.27;11.45;;;;;;;3.27;78.42;95382.62;1648901;85;21006;-60
2021/10/07 02:07:24;;;;;;;31.57;16.52;;;;;;;3.24;78.95;95386.88;1650247;86;21533;-60
2021/10/07 02:09:51;;;;;;;31.65;20.75;;;;;;;3.26;78.85;95387.27;1646783;87;21330;-59
2021/10/07 02:12:19;;;;;;;38.85;20.52;;;;;;;3.23;78.75;95392.71;1659795;85;21057;-61
2021/10/07 02:14:45;;;;;;;39.88;20.35;;;;;;;3.22;78.86;95399.31;1671079;85;21031;-66
2021/10/07 02:17:12;;;;;;;35.65;18.57;;;;;;;3.24;78.89;95401.06;1670856;85;21102;-60
2021/10/07 02:19:39;;;;;;;32.60;18.45;;;;;;;3.21;78.79;95402.59;1651250;85;21115;-60
2021/10/07 02:22:05;;;;;;;31.73;17.27;;;;;;;3.18;78.96;95405.30;1647732;86;20978;-60
2021/10/07 02:24:34;;;;;;;34.55;18.80;;;;;;;3.16;79.04;95406.27;1660867;85;21015;-60
2021/10/07 02:27:00;;;;;;;42.90;19.87;;;;;;;3.12;79.15;95402.77;1644924;85;21106;-59
2021/10/07 02:29:27;;;;;;;45.12;21.15;;;;;;;3.04;79.17;95398.48;1674853;85;20990;-61
2021/10/07 02:31:55;;;;;;;37.70;20.90;;;;;;;2.97;79.23;95399.22;1672284;85;21055;-60
2021/10/07 02:34:22;;;;;;;40.00;23.55;;;;;;;2.90;79.43;95401.89;1671301;85;21032;-61
2021/10/07 02:36:50;;;;;;;52.20;22.62;;;;;;;2.87;79.59;95403.26;1642413;85;21773;-59
2021/10/07 02:39:17;;;;;;;46.42;21.95;;;;;;;2.86;79.64;95407.14;1624495;87;21455;-59
2021/10/07 02:41:43;;;;;;;44.15;23.75;;;;;;;2.86;79.80;95405.19;1617216;86;21049;-60
2021/10/07 02:44:10;;;;;;;41.90;20.80;;;;;;;2.88;79.94;95408.89;1622838;87;21158;-59
2021/10/07 02:46:37;;;;;;;34.65;17.95;;;;;;;2.92;79.97;95409.67;1621556;87;21038;-59
2021/10/07 02:49:05;;;;;;;33.02;17.12;;;;;;;2.92;79.44;95415.11;1660665;85;21019;-60
2021/10/07 02:51:32;;;;;;;30.25;17.10;;;;;;;2.87;79.26;95416.25;1671580;85;21026;-59
2021/10/07 02:53:58;;;;;;;27.05;15.68;;;;;;;2.83;79.20;95415.46;1671003;85;21018;-59
2021/10/07 02:56:25;;;;;;;26.68;16.32;;;;;;;2.84;79.19;95418.38;1668690;85;21142;-59
2021/10/07 02:58:52;;;;;;;52.10;24.07;;;;;;;2.87;79.21;95423.64;1669455;85;21034;-59
2021/10/07 03:01:18;;;;;;;50.95;23.38;;;;;;;2.85;79.19;95421.29;1624002;85;21061;-59
2021/10/07 03:03:46;;;;;;;60.03;24.70;;;;;;;2.82;79.21;95415.83;1637502;87;21033;-60
2021/10/07 03:06:13;;;;;;;37.70;18.48;;;;;;;2.75;79.32;95417.16;1635303;87;20978;-61
2021/10/07 03:08:40;;;;;;;84.90;34.13;;;;;;;2.70;79.52;95422.97;1633427;86;21782;-61
2021/10/07 03:11:06;;;;;;;58.42;26.05;;;;;;;2.68;79.61;95421.98;1631025;86;20964;-60
2021/10/07 03:13:34;;;;;;;82.40;33.38;;;;;;;2.60;79.63;95424.47;1672287;85;21442;-59
2021/10/07 03:16:01;;;;;;;120.60;41.95;;;;;;;2.53;79.57;95430.44;1616649;87;22182;-60
2021/10/07 03:18:27;;;;;;;72.80;29.32;;;;;;;2.44;79.77;95424.55;1630139;86;21049;-60
2021/10/07 03:21:03;;;;;;;52.08;25.68;;;;;;;2.36;79.84;95433.81;1646897;86;21172;-59
2021/10/07 03:23:30;;;;;;;44.20;22.22;;;;;;;2.33;80.04;95429.15;1624447;85;21564;-60
2021/10/07 03:25:57;;;;;;;48.02;22.77;;;;;;;2.34;79.96;95438.84;1613008;87;21073;-61
2021/10/07 03:28:23;;;;;;;46.37;23.80;;;;;;;2.33;80.04;95440.77;1617743;88;21060;-60
2021/10/07 03:30:50;;;;;;;36.10;19.30;;;;;;;2.33;80.19;95449.51;1620562;88;21693;-60
2021/10/07 03:33:17;;;;;;;39.85;17.65;;;;;;;2.33;80.19;95445.44;1625361;87;21140;-60
2021/10/07 03:35:44;;;;;;;65.67;26.65;;;;;;;2.33;80.10;95456.30;1616351;86;21074;-60
2021/10/07 03:38:13;;;;;;;73.20;30.15;;;;;;;2.36;80.14;95455.53;1648424;86;21636;-61
2021/10/07 03:40:40;;;;;;;79.17;29.50;;;;;;;2.34;80.15;95446.39;1646828;86;20990;-60
2021/10/07 03:43:08;;;;;;;85.03;36.10;;;;;;;2.34;80.13;95456.49;1647401;86;21038;-59
2021/10/07 03:45:35;;;;;;;144.17;49.10;;;;;;;2.30;80.25;95452.39;1651358;86;21177;-60
2021/10/07 03:48:02;;;;;;;149.07;53.00;;;;;;;2.28;80.32;95451.20;1647016;86;21054;-60
2021/10/07 03:50:31;;;;;;;153.32;57.88;;;;;;;2.30;80.58;95451.63;1649128;86;21403;-60
2021/10/07 03:52:58;;;;;;;157.93;54.73;;;;;;;2.34;80.54;95452.42;1646820;86;21045;-61
2021/10/07 03:55:25;;;;;;;125.20;45.20;;;;;;;2.35;80.81;95451.27;1646086;87;20963;-60
2021/10/07 03:57:52;;;;;;;67.42;28.92;;;;;;;2.37;80.70;95452.45;1646390;86;21131;-60
2021/10/07 04:00:19;;;;;;;72.60;29.32;;;;;;;2.37;80.47;95454.38;1633478;86;21135;-60
2021/10/07 04:02:45;;;;;;;77.90;33.15;;;;;;;2.31;80.13;95453.95;1611817;87;21545;-60
2021/10/07 04:05:12;;;;;;;87.72;35.52;;;;;;;2.29;80.09;95454.14;1615081;87;21080;-59
2021/10/07 04:07:39;;;;;;;93.92;36.35;;;;;;;2.22;80.18;95456.78;1615471;87;21032;-61
2021/10/07 04:10:08;;;;;;;90.38;36.20;;;;;;;2.19;80.48;95453.47;1623918;87;21170;-60
2021/10/07 04:12:36;;;;;;;69.60;31.85;;;;;;;2.19;80.62;95457.54;1624222;86;21240;-61
2021/10/07 04:15:05;;;;;;;76.15;33.48;;;;;;;2.22;80.25;95455.42;1623796;87;21043;-59
2021/10/07 04:17:31;;;;;;;50.78;23.07;;;;;;;2.23;80.19;95456.42;1631897;87;21577;-60
2021/10/07 04:19:58;;;;;;;71.20;27.98;;;;;;;2.24;80.26;95458.54;1645154;85;21117;-61
2021/10/07 04:22:25;;;;;;;73.05;27.90;;;;;;;2.26;80.41;95467.88;1647087;86;21146;-60
2021/10/07 04:24:51;;;;;;;62.60;27.52;;;;;;;2.25;80.38;95464.96;1637887;85;21029;-60
2021/10/07 04:27:18;;;;;;;63.15;29.82;;;;;;;2.26;80.43;95465.72;1615914;88;21060;-59
2021/10/07 04:29:45;;;;;;;88.10;37.00;;;;;;;2.28;80.66;95460.13;1620711;87;21116;-60
2021/10/07 04:32:13;;;;;;;93.55;38.95;;;;;;;2.34;80.68;95471.42;1635768;87;21053;-60
2021/10/07 04:34:40;;;;;;;68.10;32.45;;;;;;;2.34;80.30;95470.83;1628507;86;21154;-60
2021/10/07 04:37:08;;;;;;;62.80;29.37;;;;;;;2.28;80.06;95471.55;1667601;84;21010;-59
2021/10/07 04:39:35;;;;;;;67.50;29.10;;;;;;;2.19;80.13;95469.75;1671198;85;21007;-60
2021/10/07 04:42:03;;;;;;;58.78;30.12;;;;;;;2.18;80.23;95470.31;1671165;85;21035;-61
2021/10/07 04:44:30;;;;;;;66.72;29.70;;;;;;;2.22;80.21;95468.44;1671027;85;21058;-60
2021/10/07 04:46:57;;;;;;;75.08;29.15;;;;;;;2.28;80.13;95472.91;1670579;85;21366;-61
2021/10/07 04:49:23;;;;;;;53.80;22.13;;;;;;;2.32;80.05;95478.58;1642263;85;21059;-61
2021/10/07 04:51:50;;;;;;;68.87;25.88;;;;;;;2.35;79.74;95487.91;1630163;86;21041;-61
2021/10/07 04:54:18;;;;;;;55.25;22.35;;;;;;;2.27;79.61;95487.64;1632409;86;21180;-61
2021/10/07 04:56:45;;;;;;;63.35;25.50;;;;;;;2.19;79.65;95484.12;1632335;87;21152;-61
2021/10/07 04:59:12;;;;;;;77.67;35.63;;;;;;;2.11;79.89;95477.06;1627530;86;22168;-61
2021/10/07 05:01:38;;;;;;;131.45;62.15;;;;;;;2.08;80.06;95486.52;1659187;85;21057;-61
2021/10/07 05:04:05;;;;;;;119.55;59.15;;;;;;;2.05;80.35;95481.28;1666262;85;21540;-61
2021/10/07 05:06:32;;;;;;;84.07;43.80;;;;;;;2.05;80.48;95488.63;1669506;85;21066;-60
2021/10/07 05:08:59;;;;;;;81.20;32.25;;;;;;;2.06;80.78;95479.33;1664309;85;21050;-61
2021/10/07 05:11:26;;;;;;;67.97;27.85;;;;;;;2.07;80.67;95483.03;1665636;85;21798;-61
2021/10/07 05:13:53;;;;;;;50.35;23.52;;;;;;;2.10;80.57;95486.95;1643597;85;21021;-61
2021/10/07 05:16:20;;;;;;;75.83;27.98;;;;;;;2.15;80.46;95487.95;1619494;86;21518;-61
2021/10/07 05:18:48;;;;;;;68.45;26.68;;;;;;;2.16;80.47;95484.84;1632138;85;21121;-62
2021/10/07 05:21:16;;;;;;;79.58;29.65;;;;;;;2.17;80.46;95492.42;1633644;87;21652;-62
2021/10/07 05:23:43;;;;;;;91.67;37.40;;;;;;;2.19;80.62;95489.55;1625298;87;21144;-61
2021/10/07 05:26:09;;;;;;;82.33;29.15;;;;;;;2.25;80.57;95487.23;1659764;84;21057;-61
2021/10/07 05:28:37;;;;;;;79.90;27.45;;;;;;;2.35;80.70;95488.67;1668759;85;20952;-61
2021/10/07 05:31:04;;;;;;;79.97;36.85;;;;;;;2.48;80.60;95494.61;1665930;85;21147;-61
2021/10/07 05:33:30;;;;;;;87.30;34.13;;;;;;;2.54;80.56;95490.38;1670975;85;21074;-62
2021/10/07 05:35:57;;;;;;;70.42;34.92;;;;;;;2.58;80.66;95495.25;1638845;85;21690;-66
2021/10/07 05:38:26;;;;;;;71.33;33.70;;;;;;;2.63;80.67;95487.53;1641604;86;21034;-61
2021/10/07 05:40:53;;;;;;;57.85;30.50;;;;;;;2.73;80.58;95490.11;1635620;86;20981;-63
2021/10/07 05:43:19;;;;;;;81.10;35.43;;;;;;;2.80;80.65;95492.86;1632601;86;21038;-64
2021/10/07 05:45:46;;;;;;;65.28;33.20;;;;;;;2.91;80.49;95493.12;1640980;86;21077;-61
2021/10/07 05:48:13;;;;;;;77.32;34.85;;;;;;;3.01;80.29;95496.48;1639927;85;21136;-61
2021/10/07 05:50:40;;;;;;;55.12;29.98;;;;;;;3.08;80.16;95497.11;1649710;86;21081;-61
2021/10/07 05:53:07;;;;;;;74.17;33.70;;;;;;;3.12;80.02;95500.05;1642939;85;21078;-62
2021/10/07 05:55:34;;;;;;;69.15;31.25;;;;;;;3.10;79.85;95494.78;1616311;88;21058;-60
2021/10/07 05:58:01;;;;;;;70.47;31.52;;;;;;;3.11;79.92;95496.34;1631333;86;21081;-63
2021/10/07 06:00:28;;;;;;;75.85;35.03;;;;;;;3.16;79.89;95496.76;1636013;85;21828;-63
2021/10/07 06:02:55;;;;;;;62.10;30.62;;;;;;;3.25;80.03;95491.73;1639711;86;21081;-58
2021/10/07 06:05:22;;;;;;;63.80;32.83;;;;;;;3.37;79.90;95494.70;1634094;85;21058;-61
2021/10/07 06:07:49;;;;;;;57.48;31.33;;;;;;;3.41;79.68;95497.63;1644771;85;21117;-62
2021/10/07 06:10:16;;;;;;;72.62;36.83;;;;;;;3.45;79.70;95497.66;1650952;85;21064;-61
2021/10/07 06:12:44;;;;;;;70.50;33.28;;;;;;;3.52;79.79;95503.30;1628690;85;21117;-65
2021/10/07 06:15:12;;;;;;;64.55;28.20;;;;;;;3.66;79.76;95496.55;1641785;85;21113;-66
2021/10/07 06:17:39;;;;;;;50.28;26.82;;;;;;;3.82;79.44;95494.27;1641819;85;21918;-63
2021/10/07 06:20:22;;;;;;;54.42;26.45;;;;;;;3.96;79.18;95498.95;1643743;85;21437;-61
2021/10/07 06:22:49;;;;;;;35.27;21.20;;;;;;;4.05;79.03;95493.92;1637386;86;22108;-57
2021/10/07 06:25:16;;;;;;;41.28;22.30;;;;;;;4.14;78.84;95496.46;1641679;85;21570;-61
2021/10/07 06:27:44;;;;;;;34.65;20.32;;;;;;;4.23;78.65;95495.48;1630791;85;21545;-63
2021/10/07 06:30:11;;;;;;;42.38;22.30;;;;;;;4.31;78.60;95497.06;1640420;85;21033;-62
2021/10/07 06:32:40;;;;;;;32.58;19.70;;;;;;;4.46;78.60;95497.83;1629291;85;21085;-64
2021/10/07 06:35:08;;;;;;;38.85;19.55;;;;;;;4.65;78.14;95496.86;1643275;85;21017;-59
2021/10/07 06:37:37;;;;;;;43.30;21.33;;;;;;;4.85;77.76;95492.55;1636395;85;21741;-60
2021/10/07 06:40:07;;;;;;;34.45;20.57;;;;;;;5.03;77.47;95482.38;1639488;86;21195;-59
2021/10/07 06:42:34;;;;;;;47.30;23.98;;;;;;;5.22;77.03;95485.23;1635534;85;21057;-59
2021/10/07 06:45:05;;;;;;;44.48;25.17;;;;;;;5.37;76.56;95482.05;1641755;86;21548;-60
2021/10/07 06:47:32;;;;;;;39.13;22.07;;;;;;;5.49;76.35;95485.14;1628450;86;21066;-57
2021/10/07 06:50:01;;;;;;;43.65;24.12;;;;;;;5.69;75.81;95488.16;1644089;85;21841;-63
2021/10/07 06:52:28;;;;;;;43.20;20.40;;;;;;;5.83;75.28;95488.13;1637300;86;21104;-60
2021/10/07 06:54:56;;;;;;;40.63;22.60;;;;;;;5.97;74.81;95483.34;1626268;87;21042;-58
2021/10/07 06:57:23;;;;;;;45.40;23.98;;;;;;;6.09;74.28;95483.47;1627195;85;21061;-58
2021/10/07 06:59:50;;;;;;;28.65;20.15;;;;;;;6.21;74.17;95487.89;1637439;85;21342;-59
2021/10/07 07:02:17;;;;;;;34.20;20.02;;;;;;;6.38;74.00;95481.52;1643558;85;21153;-58
2021/10/07 07:04:45;;;;;;;37.58;22.20;;;;;;;6.55;73.52;95488.02;1627798;85;21038;-59
2021/10/07 07:07:12;;;;;;;46.50;21.82;;;;;;;6.70;73.10;95493.55;1642890;86;21112;-60
2021/10/07 07:09:40;;;;;;;29.30;17.40;;;;;;;6.84;72.63;95494.20;1641908;85;21041;-64
2021/10/07 07:12:08;;;;;;;28.57;19.48;;;;;;;7.01;72.31;95491.09;1639419;85;21034;-63
2021/10/07 07:14:35;;;;;;;35.80;21.40;;;;;;;7.18;71.85;95486.22;1626544;85;21152;-61
2021/10/07 07:17:03;;;;;;;42.93;21.95;;;;;;;7.39;71.91;95481.12;1638273;85;21510;-64
2021/10/07 07:19:32;;;;;;;33.88;20.15;;;;;;;7.66;71.37;95481.37;1637237;85;21065;-62
2021/10/07 07:21:58;;;;;;;32.23;17.17;;;;;;;7.90;71.04;95481.63;1637676;86;21057;-61
2021/10/07 07:24:25;;;;;;;28.30;11.38;;;;;;;8.13;70.43;95482.30;1645024;85;21731;-63
2021/10/07 07:26:52;;;;;;;23.87;10.93;;;;;;;8.40;69.34;95486.63;1637595;87;21133;-63
2021/10/07 07:29:19;;;;;;;15.55;8.43;;;;;;;8.65;68.76;95487.00;1635833;86;21029;-60
2021/10/07 07:31:45;;;;;;;14.95;10.50;;;;;;;8.90;68.03;95478.53;1639386;85;21509;-69
2021/10/07 07:34:12;;;;;;;16.15;8.63;;;;;;;9.14;67.49;95486.95;1642387;85;21537;-63
2021/10/07 07:36:40;;;;;;;16.55;7.95;;;;;;;9.37;67.10;95482.00;1632029;85;21127;-60
2021/10/07 07:39:07;;;;;;;15.25;7.45;;;;;;;9.61;66.34;95478.02;1636439;85;21112;-61
2021/10/07 07:41:35;;;;;;;11.90;6.65;;;;;;;9.85;65.44;95484.97;1645829;85;21010;-62
2021/10/07 07:44:03;;;;;;;10.35;5.50;;;;;;;10.04;64.69;95492.45;1647779;86;21055;-59
2021/10/07 07:46:32;;;;;;;7.65;5.12;;;;;;;10.22;63.39;95491.47;1635383;85;21101;-61
2021/10/07 07:49:00;;;;;;;8.28;4.40;;;;;;;10.40;63.00;95484.97;1647478;87;21675;-64
2021/10/07 07:51:28;;;;;;;7.95;4.58;;;;;;;10.57;61.99;95488.67;1644987;85;21152;-58
2021/10/07 07:53:55;;;;;;;9.18;5.12;;;;;;;10.72;61.28;95480.87;1640124;86;21490;-60
2021/10/07 07:56:22;;;;;;;19.15;4.92;;;;;;;10.83;60.32;95493.17;1640722;85;21068;-58
2021/10/07 07:58:50;;;;;;;11.83;4.70;;;;;;;10.93;60.17;95500.38;1654466;85;21101;-62
2021/10/07 08:01:19;;;;;;;10.45;4.83;;;;;;;10.99;59.59;95483.53;1638644;85;21155;-57
2021/10/07 08:03:46;;;;;;;7.40;3.95;;;;;;;11.06;59.60;95486.89;1641848;87;21133;-61
2021/10/07 08:06:14;;;;;;;9.98;4.70;;;;;;;11.19;59.44;95481.44;1641232;85;21114;-63
2021/10/07 08:08:41;;;;;;;14.40;6.15;;;;;;;11.30;59.25;95482.70;1642526;85;21556;-64
2021/10/07 08:11:08;;;;;;;12.58;5.10;;;;;;;11.42;58.77;95486.73;1634846;86;21042;-64
2021/10/07 08:13:35;;;;;;;13.55;4.70;;;;;;;11.50;58.21;95495.74;1637301;85;21038;-64
2021/10/07 08:16:02;;;;;;;15.00;4.53;;;;;;;11.58;57.72;95498.52;1632970;85;21158;-64
2021/10/07 08:18:29;;;;;;;8.65;4.62;;;;;;;11.68;57.26;95504.34;1637133;85;21084;-58
2021/10/07 08:20:57;;;;;;;10.90;4.50;;;;;;;11.77;57.76;95498.98;1639632;85;21061;-59
2021/10/07 08:23:28;;;;;;;20.00;6.22;;;;;;;11.92;56.88;95497.34;1627777;85;21079;-61
2021/10/07 08:25:53;;;;;;;10.72;5.10;;;;;;;12.09;56.86;95518.13;1636361;85;20959;-58
2021/10/07 08:28:21;;;;;;;48.40;6.83;;;;;;;12.22;55.96;95502.39;1629912;85;22736;-61
2021/10/07 08:30:50;;;;;;;12.70;4.47;;;;;;;12.27;55.54;95515.63;1636935;85;21057;-57
2021/10/07 08:33:18;;;;;;;15.13;5.03;;;;;;;12.33;55.34;95508.38;1637257;85;21073;-61
2021/10/07 08:35:48;;;;;;;7.35;4.10;;;;;;;12.37;55.22;95509.03;1630031;85;21109;-62
2021/10/07 08:38:13;;;;;;;16.23;4.30;;;;;;;12.42;55.32;95506.34;1635431;84;21129;-60
2021/10/07 08:40:41;;;;;;;14.98;4.47;;;;;;;12.54;54.14;95502.21;1649275;85;21134;-60
2021/10/07 08:43:08;;;;;;;17.27;4.75;;;;;;;12.62;54.12;95489.72;1641314;86;21043;-64
2021/10/07 08:45:36;;;;;;;15.43;4.50;;;;;;;12.68;54.10;95503.16;1639401;85;21200;-63
2021/10/07 08:48:04;;;;;;;17.95;3.90;;;;;;;12.80;53.29;95512.81;1644488;85;21117;-60
2021/10/07 08:50:31;;;;;;;12.03;4.55;;;;;;;12.87;52.41;95499.39;1636519;85;21576;-61
2021/10/07 08:53:00;;;;;;;10.35;3.90;;;;;;;12.85;52.33;95501.80;1640661;85;21731;-61
2021/10/07 08:55:27;;;;;;;13.20;4.12;;;;;;;12.88;52.31;95494.03;1632697;86;21540;-60
2021/10/07 08:57:54;;;;;;;22.37;4.30;;;;;;;12.89;52.04;95498.34;1641917;86;21098;-61
2021/10/07 09:00:21;;;;;;;9.00;3.85;;;;;;;12.86;51.28;95495.09;1637808;85;21545;-61
2021/10/07 09:02:48;;;;;;;11.45;3.58;;;;;;;12.84;51.28;95499.66;1639794;85;21117;-60
2021/10/07 09:05:22;;;;;;;19.17;6.42;;;;;;;12.93;51.90;95504.54;1623980;86;21129;-63
2021/10/07 09:08:05;;;;;;;17.55;5.03;;;;;;;13.11;52.20;95500.59;1625582;85;21046;-63
2021/10/07 09:10:49;;;;;;;16.48;4.85;;;;;;;13.27;51.46;95510.88;1643275;87;21753;-62
2021/10/07 09:13:21;;;;;;;15.35;5.00;;;;;;;13.49;50.99;95502.66;1642484;85;21062;-61
2021/10/07 09:15:51;;;;;;;19.17;4.80;;;;;;;13.70;50.36;95508.82;1613119;86;21535;-62
2021/10/07 09:18:19;;;;;;;25.40;3.77;;;;;;;13.75;49.94;95499.95;1635240;85;21074;-60
2021/10/07 09:20:50;;;;;;;22.50;4.58;;;;;;;13.81;50.77;95514.14;1638547;85;21865;-63
2021/10/07 09:23:21;;;;;;;15.65;4.10;;;;;;;13.93;49.89;95513.92;1599374;86;21044;-62
2021/10/07 09:25:56;;;;;;;14.68;4.72;;;;;;;14.09;50.23;95504.05;1649027;85;22834;-61
2021/10/07 09:28:25;;;;;;;16.23;4.65;;;;;;;14.45;49.16;95507.85;1637522;85;21101;-61
2021/10/07 09:30:58;;;;;;;19.12;3.90;;;;;;;14.83;49.26;95510.48;1636113;85;21156;-62
2021/10/07 09:33:38;;;;;;;13.10;5.08;;;;;;;15.19;48.72;95507.08;1648763;85;21557;-60
2021/10/07 09:36:18;;;;;;;18.17;4.25;;;;;;;15.48;47.23;95515.17;1635626;85;21107;-61
2021/10/07 09:38:51;;;;;;;16.30;4.33;;;;;;;15.75;46.47;95515.19;1641002;85;21002;-61
2021/10/07 09:41:27;;;;;;;24.27;4.58;;;;;;;15.74;45.66;95519.20;1642885;85;21679;-60
2021/10/07 09:44:02;;;;;;;21.00;4.47;;;;;;;15.85;46.25;95522.30;1644067;85;21643;-60
2021/10/07 09:46:49;;;;;;;20.48;4.53;;;;;;;16.05;45.60;95521.81;1643427;85;21045;-61
2021/10/07 09:49:20;;;;;;;24.50;5.75;;;;;;;16.27;44.82;95523.83;1629762;85;21096;-59
2021/10/07 09:51:51;;;;;;;30.02;6.90;;;;;;;16.49;44.69;95522.41;1622405;85;21065;-61
2021/10/07 09:54:20;;;;;;;37.42;5.10;;;;;;;16.52;44.36;95533.37;1649001;85;21031;-58
2021/10/07 09:56:59;;;;;;;27.90;5.55;;;;;;;16.37;43.06;95538.02;1643252;85;21573;-58
2021/10/07 09:59:28;;;;;;;23.05;5.10;;;;;;;16.10;43.08;95529.55;1644072;85;21034;-62
2021/10/07 10:01:56;;;;;;;24.80;4.85;;;;;;;15.94;43.83;95536.80;1642592;85;21045;-60
2021/10/07 10:04:26;;;;;;;23.55;5.15;;;;;;;15.77;44.18;95529.37;1632965;86;21093;-60
2021/10/07 10:06:53;;;;;;;22.70;4.12;;;;;;;15.61;44.98;95530.28;1643215;86;22300;-63
2021/10/07 10:09:23;;;;;;;34.18;5.95;;;;;;;15.52;44.36;95521.33;1648858;85;21158;-61
2021/10/07 10:11:50;;;;;;;23.35;5.62;;;;;;;15.43;45.45;95524.11;1639963;85;21066;-60
2021/10/07 10:14:20;;;;;;;24.77;5.10;;;;;;;15.53;44.94;95533.97;1636517;85;21456;-62
2021/10/07 10:16:49;;;;;;;25.40;6.15;;;;;;;15.70;44.47;95529.68;1621053;86;21084;-60
2021/10/07 10:19:16;;;;;;;29.55;6.55;;;;;;;15.90;44.65;95521.67;1606530;87;21061;-58
2021/10/07 10:21:44;;;;;;;37.42;8.15;;;;;;;16.07;43.71;95522.16;1582269;89;21148;-61
2021/10/07 10:24:11;;;;;;;30.35;6.55;;;;;;;16.03;44.14;95522.30;1556588;91;21167;-63
2021/10/07 10:26:39;;;;;;;23.02;5.62;;;;;;;15.92;44.01;95517.81;1586317;90;21068;-63
2021/10/07 10:29:20;;;;;;;20.90;5.62;;;;;;;15.91;44.27;95510.73;1586653;89;21074;-60
2021/10/07 10:31:53;;;;;;;25.77;7.50;;;;;;;15.89;44.02;95528.45;1594881;89;22278;-60
2021/10/07 10:34:21;;;;;;;30.23;7.25;;;;;;;15.73;44.01;95531.53;1620307;86;21285;-59
2021/10/07 10:36:59;;;;;;;36.55;12.45;;;;;;;15.52;44.39;95541.38;1648360;86;21072;-58
2021/10/07 10:39:34;;;;;;;37.50;10.55;;;;;;;15.10;44.97;95541.08;1624755;87;21026;-59
2021/10/07 10:42:06;;;;;;;36.85;10.00;;;;;;;14.75;45.84;95538.91;1642542;85;21061;-59
2021/10/07 10:44:53;;;;;;;;;;;;;;;14.52;46.69;95544.35;1645267;86;21064;-61
2021/10/07 10:47:23;;;;;;;37.28;12.18;;;;;;;14.26;47.26;95541.40;1621530;86;21238;-60
2021/10/07 10:50:03;;;;;;;40.63;15.10;;;;;;;14.00;47.64;95548.27;1642859;85;21019;-61
2021/10/07 10:52:35;;;;;;;30.85;11.25;;;;;;;13.82;48.20;95546.73;1660478;85;21035;-63
2021/10/07 10:55:14;;;;;;;62.38;24.35;;;;;;;13.74;48.19;95557.86;1642773;85;21089;-59
2021/10/07 10:57:50;;;;;;;33.05;11.08;;;;;;;13.58;49.04;95552.48;1620613;86;21105;-59
2021/10/07 11:00:31;;;;;;;33.60;9.63;;;;;;;13.38;49.37;95561.66;1630278;87;21113;-59
2021/10/07 11:03:14;;;;;;;40.20;13.35;;;;;;;13.29;49.44;95561.58;1635946;85;21026;-60
2021/10/07 11:06:01;;;;;;;44.10;14.58;;;;;;;13.21;49.31;95554.72;1636296;86;21406;-60
2021/10/07 11:08:45;;;;;;;42.27;12.18;;;;;;;13.03;50.26;95548.98;1634538;87;21065;-60
2021/10/07 11:11:23;;;;;;;;;;;;;;;12.96;50.27;95553.37;1636861;86;21716;-66
2021/10/07 11:13:50;;;;;;;52.45;18.15;;;;;;;12.91;50.76;95546.38;1641274;86;21129;-62
2021/10/07 11:16:19;;;;;;;45.63;16.70;;;;;;;12.92;50.76;95544.40;1655380;85;21038;-61
2021/10/07 11:18:50;;;;;;;35.50;10.60;;;;;;;12.97;51.09;95554.32;1640259;86;21073;-65
2021/10/07 11:21:20;;;;;;;26.07;7.83;;;;;;;13.05;50.94;95543.82;1640048;86;21126;-61
2021/10/07 11:23:53;;;;;;;23.45;7.50;;;;;;;13.13;50.74;95545.91;1645502;85;21998;-61
2021/10/07 11:26:23;;;;;;;25.88;8.65;;;;;;;13.20;50.23;95549.03;1631579;85;21156;-65
2021/10/07 11:28:50;;;;;;;21.20;9.35;;;;;;;13.17;50.53;95547.16;1640500;85;21175;-61
2021/10/07 11:31:21;;;;;;;15.93;6.05;;;;;;;13.09;50.48;95547.23;1658530;85;21086;-63
2021/10/07 11:33:54;;;;;;;21.57;7.40;;;;;;;12.99;50.25;95544.19;1642400;87;21009;-62
2021/10/07 11:36:26;;;;;;;18.55;5.55;;;;;;;12.95;50.73;95532.48;1641503;85;21001;-63